AQQ10 IFIS: Internet Flight Information System
logo dgac
Miércoles 19 de Junio del 2024
Buscar por aerodromo o helipuerto
Ingrese nombre de aeródromo, localidad o designador OACI:
SPECI del 19-06-2024 a las 09:54 UTC
Para mayor información visite www.meteochile.gob.cl
SPECI SCJO 190954Z AUTO 08002KT CAVOK 01/01 Q1016
Viento: dirección 080 grados, velocidad 2 nudos
Visibilidad: 10 km o más,
    sin nubes bajo los 5.000 pies o bajo del MSA (Mínimo de Seguridad del Aeródromo),
    sin cumulonimbus, y sin fenómenos de tiempo significativo en el aeródromo o alrededores
Temperatura: 1 °C
Rocío: 1 °C
Humedad_relativa: 100%
Presión: 1016 hPa
SPECI del 19-06-2024 a las 09:43 UTC
Para mayor información visite www.meteochile.gob.cl
SPECI SCJO 190943Z AUTO 10002KT 2700 FEW068/// 02/01 Q1016
Viento: dirección 100 grados, velocidad 2 nudos
Visibilidad: 2700 metros
Nubes: Escasa nubosidad a 6800 pies sobre el nivel del aeródromo, Tipo de nubes no disponible
Temperatura: 2 °C
Rocío: 1 °C
Humedad_relativa: 93%
Presión: 1016 hPa
METAR del 19-06-2024 a las 09:00 UTC
Para mayor información visite www.meteochile.gob.cl
METAR SCJO 190900Z AUTO VRB02KT 9999 OVC061/// 02/02 Q1016
Viento: dirección variable, velocidad 2 nudos
Visibilidad: 10 km o más
Nubes: Cubierto a 6100 pies sobre el nivel del aeródromo, Tipo de nubes no disponible
Temperatura: 2 °C
Rocío: 2 °C
Humedad_relativa: 100%
Presión: 1016 hPa
METAR del 19-06-2024 a las 08:00 UTC
Para mayor información visite www.meteochile.gob.cl
METAR SCJO 190800Z AUTO 24003KT 6000 -RA SCT026/// BKN031/// OVC036/// 01/01 Q1017
Viento: dirección 240 grados, velocidad 3 nudos
Visibilidad: 6000 metros
Débil Lluvia
Nubes: Nubosidad parcial a 2600 pies sobre el nivel del aeródromo, Tipo de nubes no disponible
Nubes: Nublado a 3100 pies sobre el nivel del aeródromo, Tipo de nubes no disponible
Nubes: Cubierto a 3600 pies sobre el nivel del aeródromo, Tipo de nubes no disponible
Temperatura: 1 °C
Rocío: 1 °C
Humedad_relativa: 100%
Presión: 1017 hPa
METAR del 19-06-2024 a las 07:00 UTC
Para mayor información visite www.meteochile.gob.cl
METAR SCJO 190700Z AUTO 05003KT 5000 BR FEW047/// 01/01 Q1016
Viento: dirección 050 grados, velocidad 3 nudos
Visibilidad: 5000 metros
Neblina
Nubes: Escasa nubosidad a 4700 pies sobre el nivel del aeródromo, Tipo de nubes no disponible
Temperatura: 1 °C
Rocío: 1 °C
Humedad_relativa: 100%
Presión: 1016 hPa
SPECI del 19-06-2024 a las 06:49 UTC
Para mayor información visite www.meteochile.gob.cl
SPECI SCJO 190649Z AUTO 06003KT 040V100 4700 FEW043/// 01/01 Q1016
Viento: dirección 060 grados, velocidad 3 nudos
Viento con dirección variable entre 040 y 100 grados
Visibilidad: 4700 metros
Nubes: Escasa nubosidad a 4300 pies sobre el nivel del aeródromo, Tipo de nubes no disponible
Temperatura: 1 °C
Rocío: 1 °C
Humedad_relativa: 100%
Presión: 1016 hPa
SPECI del 19-06-2024 a las 06:40 UTC
Para mayor información visite www.meteochile.gob.cl
SPECI SCJO 190640Z AUTO 09002KT 6000 SCT032/// SCT070/// 01/01 Q1016
Viento: dirección 090 grados, velocidad 2 nudos
Visibilidad: 6000 metros
Nubes: Nubosidad parcial a 3200 pies sobre el nivel del aeródromo, Tipo de nubes no disponible
Nubes: Nubosidad parcial a 7000 pies sobre el nivel del aeródromo, Tipo de nubes no disponible
Temperatura: 1 °C
Rocío: 1 °C
Humedad_relativa: 100%
Presión: 1016 hPa
SPECI del 19-06-2024 a las 06:28 UTC
Para mayor información visite www.meteochile.gob.cl
SPECI SCJO 190628Z AUTO VRB02KT 4600 -SHRA BR FEW030/// BKN034/// OVC069/// 01/01 Q1016
Viento: dirección variable, velocidad 2 nudos
Visibilidad: 4600 metros
Débil ChubascosLluvia
Neblina
Nubes: Escasa nubosidad a 3000 pies sobre el nivel del aeródromo, Tipo de nubes no disponible
Nubes: Nublado a 3400 pies sobre el nivel del aeródromo, Tipo de nubes no disponible
Nubes: Cubierto a 6900 pies sobre el nivel del aeródromo, Tipo de nubes no disponible
Temperatura: 1 °C
Rocío: 1 °C
Humedad_relativa: 100%
Presión: 1016 hPa
SPECI del 19-06-2024 a las 06:26 UTC
Para mayor información visite www.meteochile.gob.cl
SPECI SCJO 190626Z AUTO VRB02KT 5000 -SHRA FEW030/// BKN034/// OVC070/// 01/01 Q1016
Viento: dirección variable, velocidad 2 nudos
Visibilidad: 5000 metros
Débil ChubascosLluvia
Nubes: Escasa nubosidad a 3000 pies sobre el nivel del aeródromo, Tipo de nubes no disponible
Nubes: Nublado a 3400 pies sobre el nivel del aeródromo, Tipo de nubes no disponible
Nubes: Cubierto a 7000 pies sobre el nivel del aeródromo, Tipo de nubes no disponible
Temperatura: 1 °C
Rocío: 1 °C
Humedad_relativa: 100%
Presión: 1016 hPa
SPECI del 19-06-2024 a las 06:01 UTC
Para mayor información visite www.meteochile.gob.cl
SPECI SCJO 190601Z AUTO VRB02KT 4800 BR SCT042/// BKN073/// BKN087/// 00/00 Q1016
Viento: dirección variable, velocidad 2 nudos
Visibilidad: 4800 metros
Neblina
Nubes: Nubosidad parcial a 4200 pies sobre el nivel del aeródromo, Tipo de nubes no disponible
Nubes: Nublado a 7300 pies sobre el nivel del aeródromo, Tipo de nubes no disponible
Nubes: Nublado a 8700 pies sobre el nivel del aeródromo, Tipo de nubes no disponible
Temperatura: 0 °C
Rocío: 0 °C
Humedad_relativa: 100%
Presión: 1016 hPa